sensor_id;sensor_type;location;lat;lon;timestamp;P1;durP1;ratioP1;P2;durP2;ratioP2
46054;SDS011;31788;6.954;-71.872;2022-08-20T00:02:20;40.50;;;11.02;;
46054;SDS011;31788;6.954;-71.872;2022-08-20T00:04:47;51.97;;;11.77;;
46054;SDS011;31788;6.954;-71.872;2022-08-20T00:07:13;60.83;;;12.30;;
46054;SDS011;31788;6.954;-71.872;2022-08-20T00:09:40;49.70;;;12.38;;
46054;SDS011;31788;6.954;-71.872;2022-08-20T00:12:07;98.43;;;16.73;;
46054;SDS011;31788;6.954;-71.872;2022-08-20T00:14:35;82.45;;;14.73;;
46054;SDS011;31788;6.954;-71.872;2022-08-20T00:17:03;62.70;;;12.40;;
46054;SDS011;31788;6.954;-71.872;2022-08-20T00:19:30;52.90;;;10.27;;
46054;SDS011;31788;6.954;-71.872;2022-08-20T00:22:01;63.92;;;19.35;;
46054;SDS011;31788;6.954;-71.872;2022-08-20T00:24:27;53.60;;;12.95;;
46054;SDS011;31788;6.954;-71.872;2022-08-20T00:26:54;54.78;;;12.63;;
46054;SDS011;31788;6.954;-71.872;2022-08-20T00:29:20;45.70;;;8.93;;
46054;SDS011;31788;6.954;-71.872;2022-08-20T00:31:47;34.53;;;8.38;;
46054;SDS011;31788;6.954;-71.872;2022-08-20T00:34:14;27.73;;;7.68;;
46054;SDS011;31788;6.954;-71.872;2022-08-20T00:36:41;26.05;;;7.13;;
46054;SDS011;31788;6.954;-71.872;2022-08-20T00:39:07;21.38;;;6.75;;
46054;SDS011;31788;6.954;-71.872;2022-08-20T00:41:34;27.55;;;11.55;;
46054;SDS011;31788;6.954;-71.872;2022-08-20T00:46:37;24.65;;;7.57;;
46054;SDS011;31788;6.954;-71.872;2022-08-20T00:49:05;25.38;;;8.10;;
46054;SDS011;31788;6.954;-71.872;2022-08-20T00:51:47;25.95;;;7.53;;
46054;SDS011;31788;6.954;-71.872;2022-08-20T00:57:08;24.58;;;6.53;;
46054;SDS011;31788;6.954;-71.872;2022-08-20T00:59:37;15.10;;;5.45;;
46054;SDS011;31788;6.954;-71.872;2022-08-20T01:02:12;22.35;;;6.47;;
46054;SDS011;31788;6.954;-71.872;2022-08-20T01:04:42;22.05;;;6.28;;
46054;SDS011;31788;6.954;-71.872;2022-08-20T01:07:19;21.85;;;5.68;;
46054;SDS011;31788;6.954;-71.872;2022-08-20T01:10:00;36.90;;;7.43;;
46054;SDS011;31788;6.954;-71.872;2022-08-20T01:12:40;31.40;;;7.03;;
46054;SDS011;31788;6.954;-71.872;2022-08-20T01:15:12;34.60;;;7.10;;
46054;SDS011;31788;6.954;-71.872;2022-08-20T01:17:42;29.52;;;7.57;;
46054;SDS011;31788;6.954;-71.872;2022-08-20T01:20:17;34.20;;;7.53;;
46054;SDS011;31788;6.954;-71.872;2022-08-20T01:28:29;35.33;;;9.05;;
46054;SDS011;31788;6.954;-71.872;2022-08-20T01:31:00;25.35;;;7.00;;
46054;SDS011;31788;6.954;-71.872;2022-08-20T01:33:28;26.13;;;7.13;;
46054;SDS011;31788;6.954;-71.872;2022-08-20T01:35:56;28.80;;;9.88;;
46054;SDS011;31788;6.954;-71.872;2022-08-20T01:38:23;33.92;;;14.32;;
46054;SDS011;31788;6.954;-71.872;2022-08-20T01:41:03;42.88;;;25.55;;
46054;SDS011;31788;6.954;-71.872;2022-08-20T01:43:47;45.83;;;12.05;;
46054;SDS011;31788;6.954;-71.872;2022-08-20T01:46:20;33.47;;;8.63;;
46054;SDS011;31788;6.954;-71.872;2022-08-20T01:49:05;32.35;;;8.60;;
46054;SDS011;31788;6.954;-71.872;2022-08-20T01:51:37;24.77;;;6.75;;
46054;SDS011;31788;6.954;-71.872;2022-08-20T01:54:05;27.55;;;8.27;;
46054;SDS011;31788;6.954;-71.872;2022-08-20T01:56:31;36.83;;;9.60;;
46054;SDS011;31788;6.954;-71.872;2022-08-20T01:59:01;57.93;;;10.83;;
46054;SDS011;31788;6.954;-71.872;2022-08-20T02:01:39;61.72;;;11.18;;
46054;SDS011;31788;6.954;-71.872;2022-08-20T02:04:07;42.50;;;10.38;;
46054;SDS011;31788;6.954;-71.872;2022-08-20T02:06:37;42.17;;;12.25;;
46054;SDS011;31788;6.954;-71.872;2022-08-20T02:09:09;219.57;;;196.50;;
46054;SDS011;31788;6.954;-71.872;2022-08-20T02:11:37;97.45;;;75.85;;
46054;SDS011;31788;6.954;-71.872;2022-08-20T02:14:05;59.38;;;25.60;;
46054;SDS011;31788;6.954;-71.872;2022-08-20T02:16:35;33.53;;;10.65;;
46054;SDS011;31788;6.954;-71.872;2022-08-20T02:19:11;27.08;;;8.25;;
46054;SDS011;31788;6.954;-71.872;2022-08-20T02:21:44;34.63;;;6.88;;
46054;SDS011;31788;6.954;-71.872;2022-08-20T02:24:15;62.67;;;8.27;;
46054;SDS011;31788;6.954;-71.872;2022-08-20T02:26:43;39.15;;;7.43;;
46054;SDS011;31788;6.954;-71.872;2022-08-20T02:29:11;32.88;;;6.05;;
46054;SDS011;31788;6.954;-71.872;2022-08-20T02:31:39;37.83;;;6.80;;
46054;SDS011;31788;6.954;-71.872;2022-08-20T02:34:08;48.92;;;7.65;;
46054;SDS011;31788;6.954;-71.872;2022-08-20T02:36:37;42.45;;;6.28;;
46054;SDS011;31788;6.954;-71.872;2022-08-20T02:39:05;55.30;;;7.53;;
46054;SDS011;31788;6.954;-71.872;2022-08-20T02:41:34;49.78;;;7.07;;
46054;SDS011;31788;6.954;-71.872;2022-08-20T02:44:02;41.58;;;5.38;;
46054;SDS011;31788;6.954;-71.872;2022-08-20T02:46:30;30.88;;;4.63;;
46054;SDS011;31788;6.954;-71.872;2022-08-20T02:48:57;23.45;;;4.13;;
46054;SDS011;31788;6.954;-71.872;2022-08-20T02:51:24;39.03;;;5.55;;
46054;SDS011;31788;6.954;-71.872;2022-08-20T02:53:51;28.40;;;5.13;;
46054;SDS011;31788;6.954;-71.872;2022-08-20T02:56:18;31.85;;;5.25;;
46054;SDS011;31788;6.954;-71.872;2022-08-20T02:58:45;42.13;;;6.95;;
46054;SDS011;31788;6.954;-71.872;2022-08-20T03:01:12;26.67;;;5.75;;
46054;SDS011;31788;6.954;-71.872;2022-08-20T03:03:41;21.63;;;4.95;;
46054;SDS011;31788;6.954;-71.872;2022-08-20T03:06:08;21.37;;;4.40;;
46054;SDS011;31788;6.954;-71.872;2022-08-20T03:08:37;17.00;;;4.03;;
46054;SDS011;31788;6.954;-71.872;2022-08-20T03:11:05;12.25;;;5.15;;
46054;SDS011;31788;6.954;-71.872;2022-08-20T03:13:32;16.38;;;4.85;;
46054;SDS011;31788;6.954;-71.872;2022-08-20T03:15:59;11.82;;;4.20;;
46054;SDS011;31788;6.954;-71.872;2022-08-20T03:18:37;20.52;;;5.20;;
46054;SDS011;31788;6.954;-71.872;2022-08-20T03:21:09;12.68;;;4.18;;
46054;SDS011;31788;6.954;-71.872;2022-08-20T03:23:37;13.95;;;3.58;;
46054;SDS011;31788;6.954;-71.872;2022-08-20T03:26:05;13.47;;;3.53;;
46054;SDS011;31788;6.954;-71.872;2022-08-20T03:28:33;55.50;;;7.43;;
46054;SDS011;31788;6.954;-71.872;2022-08-20T03:31:00;72.78;;;10.55;;
46054;SDS011;31788;6.954;-71.872;2022-08-20T03:33:28;47.63;;;6.97;;
46054;SDS011;31788;6.954;-71.872;2022-08-20T03:35:56;42.53;;;6.60;;
46054;SDS011;31788;6.954;-71.872;2022-08-20T03:38:24;45.08;;;5.90;;
46054;SDS011;31788;6.954;-71.872;2022-08-20T03:40:51;74.75;;;9.57;;
46054;SDS011;31788;6.954;-71.872;2022-08-20T03:43:18;83.40;;;10.20;;
46054;SDS011;31788;6.954;-71.872;2022-08-20T03:45:45;58.25;;;7.13;;
46054;SDS011;31788;6.954;-71.872;2022-08-20T03:48:14;57.10;;;6.65;;
46054;SDS011;31788;6.954;-71.872;2022-08-20T03:50:42;60.30;;;7.07;;
46054;SDS011;31788;6.954;-71.872;2022-08-20T03:53:10;46.70;;;6.35;;
46054;SDS011;31788;6.954;-71.872;2022-08-20T03:55:38;57.05;;;7.95;;
46054;SDS011;31788;6.954;-71.872;2022-08-20T03:58:06;33.63;;;4.50;;
46054;SDS011;31788;6.954;-71.872;2022-08-20T04:03:06;13.70;;;2.63;;
46054;SDS011;31788;6.954;-71.872;2022-08-20T04:05:34;12.38;;;3.33;;
46054;SDS011;31788;6.954;-71.872;2022-08-20T04:08:05;13.43;;;4.33;;
46054;SDS011;31788;6.954;-71.872;2022-08-20T04:10:36;10.23;;;3.95;;
46054;SDS011;31788;6.954;-71.872;2022-08-20T04:13:04;8.60;;;2.80;;
46054;SDS011;31788;6.954;-71.872;2022-08-20T04:15:33;9.77;;;2.85;;
46054;SDS011;31788;6.954;-71.872;2022-08-20T04:18:02;7.50;;;2.60;;
46054;SDS011;31788;6.954;-71.872;2022-08-20T04:20:32;6.28;;;1.75;;
46054;SDS011;31788;6.954;-71.872;2022-08-20T04:23:00;9.13;;;2.15;;
46054;SDS011;31788;6.954;-71.872;2022-08-20T04:25:28;6.50;;;2.33;;
46054;SDS011;31788;6.954;-71.872;2022-08-20T04:27:58;6.55;;;2.13;;
46054;SDS011;31788;6.954;-71.872;2022-08-20T04:30:26;6.07;;;2.30;;
46054;SDS011;31788;6.954;-71.872;2022-08-20T04:32:54;7.15;;;2.70;;
46054;SDS011;31788;6.954;-71.872;2022-08-20T04:35:21;7.75;;;1.95;;
46054;SDS011;31788;6.954;-71.872;2022-08-20T04:37:49;6.28;;;2.25;;
46054;SDS011;31788;6.954;-71.872;2022-08-20T04:40:32;6.37;;;1.90;;
46054;SDS011;31788;6.954;-71.872;2022-08-20T04:43:18;5.78;;;1.98;;
46054;SDS011;31788;6.954;-71.872;2022-08-20T04:45:47;5.63;;;1.90;;
46054;SDS011;31788;6.954;-71.872;2022-08-20T04:48:16;5.25;;;1.77;;
46054;SDS011;31788;6.954;-71.872;2022-08-20T04:50:47;5.53;;;1.75;;
46054;SDS011;31788;6.954;-71.872;2022-08-20T04:53:15;5.60;;;1.87;;
46054;SDS011;31788;6.954;-71.872;2022-08-20T04:55:43;6.82;;;1.90;;
46054;SDS011;31788;6.954;-71.872;2022-08-20T04:58:13;5.82;;;2.22;;
46054;SDS011;31788;6.954;-71.872;2022-08-20T05:00:50;7.22;;;2.28;;
46054;SDS011;31788;6.954;-71.872;2022-08-20T05:03:19;6.93;;;1.90;;
46054;SDS011;31788;6.954;-71.872;2022-08-20T05:05:46;5.75;;;2.00;;
46054;SDS011;31788;6.954;-71.872;2022-08-20T05:08:14;7.15;;;1.92;;
46054;SDS011;31788;6.954;-71.872;2022-08-20T05:10:43;4.53;;;1.83;;
46054;SDS011;31788;6.954;-71.872;2022-08-20T05:13:10;6.75;;;1.95;;
46054;SDS011;31788;6.954;-71.872;2022-08-20T05:15:37;8.10;;;2.22;;
46054;SDS011;31788;6.954;-71.872;2022-08-20T05:18:05;7.43;;;2.28;;
46054;SDS011;31788;6.954;-71.872;2022-08-20T05:20:34;8.85;;;2.40;;
46054;SDS011;31788;6.954;-71.872;2022-08-20T05:23:09;7.32;;;2.80;;
46054;SDS011;31788;6.954;-71.872;2022-08-20T05:25:37;9.27;;;2.88;;
46054;SDS011;31788;6.954;-71.872;2022-08-20T05:28:07;8.35;;;2.70;;
46054;SDS011;31788;6.954;-71.872;2022-08-20T05:30:39;7.97;;;2.00;;
46054;SDS011;31788;6.954;-71.872;2022-08-20T05:33:07;4.78;;;2.00;;
46054;SDS011;31788;6.954;-71.872;2022-08-20T05:35:36;7.82;;;1.98;;
46054;SDS011;31788;6.954;-71.872;2022-08-20T05:38:04;7.72;;;1.90;;
46054;SDS011;31788;6.954;-71.872;2022-08-20T05:40:32;5.50;;;1.92;;
46054;SDS011;31788;6.954;-71.872;2022-08-20T05:42:59;4.95;;;1.70;;
46054;SDS011;31788;6.954;-71.872;2022-08-20T05:45:29;4.80;;;2.03;;
46054;SDS011;31788;6.954;-71.872;2022-08-20T05:47:57;5.07;;;1.67;;
46054;SDS011;31788;6.954;-71.872;2022-08-20T05:50:24;5.22;;;1.90;;
46054;SDS011;31788;6.954;-71.872;2022-08-20T05:52:51;7.90;;;2.00;;
46054;SDS011;31788;6.954;-71.872;2022-08-20T05:55:18;6.57;;;2.28;;
46054;SDS011;31788;6.954;-71.872;2022-08-20T05:57:44;5.60;;;2.15;;
46054;SDS011;31788;6.954;-71.872;2022-08-20T06:00:12;5.97;;;2.27;;
46054;SDS011;31788;6.954;-71.872;2022-08-20T06:02:39;7.40;;;2.30;;
46054;SDS011;31788;6.954;-71.872;2022-08-20T06:05:25;10.82;;;2.10;;
46054;SDS011;31788;6.954;-71.872;2022-08-20T06:07:56;7.47;;;2.00;;
46054;SDS011;31788;6.954;-71.872;2022-08-20T06:10:26;6.95;;;2.30;;
46054;SDS011;31788;6.954;-71.872;2022-08-20T06:12:53;6.70;;;2.30;;
46054;SDS011;31788;6.954;-71.872;2022-08-20T06:15:19;5.63;;;1.80;;
46054;SDS011;31788;6.954;-71.872;2022-08-20T06:17:46;4.90;;;2.05;;
46054;SDS011;31788;6.954;-71.872;2022-08-20T06:20:12;5.95;;;2.28;;
46054;SDS011;31788;6.954;-71.872;2022-08-20T06:22:39;5.78;;;2.20;;
46054;SDS011;31788;6.954;-71.872;2022-08-20T06:25:06;5.78;;;1.88;;
46054;SDS011;31788;6.954;-71.872;2022-08-20T06:27:33;7.47;;;2.33;;
46054;SDS011;31788;6.954;-71.872;2022-08-20T06:30:05;7.95;;;2.35;;
46054;SDS011;31788;6.954;-71.872;2022-08-20T06:32:35;6.50;;;2.20;;
46054;SDS011;31788;6.954;-71.872;2022-08-20T06:35:03;5.80;;;2.40;;
46054;SDS011;31788;6.954;-71.872;2022-08-20T06:37:31;7.78;;;2.38;;
46054;SDS011;31788;6.954;-71.872;2022-08-20T06:40:07;5.28;;;2.10;;
46054;SDS011;31788;6.954;-71.872;2022-08-20T06:42:53;7.57;;;2.05;;
46054;SDS011;31788;6.954;-71.872;2022-08-20T06:45:22;6.50;;;1.90;;
46054;SDS011;31788;6.954;-71.872;2022-08-20T06:47:51;5.85;;;2.00;;
46054;SDS011;31788;6.954;-71.872;2022-08-20T06:50:30;4.93;;;2.00;;
46054;SDS011;31788;6.954;-71.872;2022-08-20T06:53:04;7.88;;;2.22;;
46054;SDS011;31788;6.954;-71.872;2022-08-20T06:55:31;7.30;;;2.30;;
46054;SDS011;31788;6.954;-71.872;2022-08-20T06:58:00;7.68;;;2.70;;
46054;SDS011;31788;6.954;-71.872;2022-08-20T07:00:30;5.70;;;2.00;;
46054;SDS011;31788;6.954;-71.872;2022-08-20T07:02:58;6.53;;;2.03;;
46054;SDS011;31788;6.954;-71.872;2022-08-20T07:05:26;6.40;;;2.10;;
46054;SDS011;31788;6.954;-71.872;2022-08-20T07:07:53;6.60;;;1.83;;
46054;SDS011;31788;6.954;-71.872;2022-08-20T07:10:20;4.30;;;1.70;;
46054;SDS011;31788;6.954;-71.872;2022-08-20T07:12:49;5.95;;;1.70;;
46054;SDS011;31788;6.954;-71.872;2022-08-20T07:15:17;4.68;;;1.90;;
46054;SDS011;31788;6.954;-71.872;2022-08-20T07:17:52;5.70;;;2.00;;
46054;SDS011;31788;6.954;-71.872;2022-08-20T07:20:21;4.87;;;1.70;;
46054;SDS011;31788;6.954;-71.872;2022-08-20T07:22:48;6.35;;;2.00;;
46054;SDS011;31788;6.954;-71.872;2022-08-20T07:25:16;5.95;;;1.65;;
46054;SDS011;31788;6.954;-71.872;2022-08-20T07:27:44;5.65;;;2.00;;
46054;SDS011;31788;6.954;-71.872;2022-08-20T07:30:13;6.05;;;2.10;;
46054;SDS011;31788;6.954;-71.872;2022-08-20T07:33:04;3.22;;;1.50;;
46054;SDS011;31788;6.954;-71.872;2022-08-20T07:35:30;5.45;;;1.60;;
46054;SDS011;31788;6.954;-71.872;2022-08-20T07:37:57;5.60;;;1.53;;
46054;SDS011;31788;6.954;-71.872;2022-08-20T07:40:26;4.88;;;1.60;;
46054;SDS011;31788;6.954;-71.872;2022-08-20T07:42:54;5.07;;;1.55;;
46054;SDS011;31788;6.954;-71.872;2022-08-20T07:45:23;5.03;;;1.52;;
46054;SDS011;31788;6.954;-71.872;2022-08-20T07:47:50;4.72;;;1.45;;
46054;SDS011;31788;6.954;-71.872;2022-08-20T07:50:21;5.03;;;1.48;;
46054;SDS011;31788;6.954;-71.872;2022-08-20T07:52:49;3.45;;;1.40;;
46054;SDS011;31788;6.954;-71.872;2022-08-20T07:55:20;4.35;;;1.33;;
46054;SDS011;31788;6.954;-71.872;2022-08-20T07:57:47;4.40;;;1.40;;
46054;SDS011;31788;6.954;-71.872;2022-08-20T08:00:15;4.10;;;1.53;;
46054;SDS011;31788;6.954;-71.872;2022-08-20T08:02:43;4.28;;;1.40;;
46054;SDS011;31788;6.954;-71.872;2022-08-20T08:05:11;6.57;;;1.67;;
46054;SDS011;31788;6.954;-71.872;2022-08-20T08:07:38;9.97;;;2.20;;
46054;SDS011;31788;6.954;-71.872;2022-08-20T08:10:06;12.38;;;2.90;;
46054;SDS011;31788;6.954;-71.872;2022-08-20T08:12:41;12.75;;;2.53;;
46054;SDS011;31788;6.954;-71.872;2022-08-20T08:15:14;8.40;;;2.20;;
46054;SDS011;31788;6.954;-71.872;2022-08-20T08:17:43;19.20;;;4.45;;
46054;SDS011;31788;6.954;-71.872;2022-08-20T08:20:13;14.52;;;4.20;;
46054;SDS011;31788;6.954;-71.872;2022-08-20T08:22:40;21.17;;;4.67;;
46054;SDS011;31788;6.954;-71.872;2022-08-20T08:25:11;34.53;;;5.80;;
46054;SDS011;31788;6.954;-71.872;2022-08-20T08:27:42;40.08;;;6.22;;
46054;SDS011;31788;6.954;-71.872;2022-08-20T08:30:11;31.75;;;4.63;;
46054;SDS011;31788;6.954;-71.872;2022-08-20T08:32:39;15.10;;;3.08;;
46054;SDS011;31788;6.954;-71.872;2022-08-20T08:35:25;17.27;;;2.92;;
46054;SDS011;31788;6.954;-71.872;2022-08-20T08:37:52;15.07;;;2.50;;
46054;SDS011;31788;6.954;-71.872;2022-08-20T08:40:19;18.77;;;3.00;;
46054;SDS011;31788;6.954;-71.872;2022-08-20T08:42:50;10.05;;;2.30;;
46054;SDS011;31788;6.954;-71.872;2022-08-20T08:45:56;8.67;;;2.07;;
46054;SDS011;31788;6.954;-71.872;2022-08-20T08:48:36;5.80;;;1.60;;
46054;SDS011;31788;6.954;-71.872;2022-08-20T08:51:09;5.38;;;1.88;;
46054;SDS011;31788;6.954;-71.872;2022-08-20T08:53:42;6.22;;;1.67;;
46054;SDS011;31788;6.954;-71.872;2022-08-20T08:56:13;5.00;;;1.60;;
46054;SDS011;31788;6.954;-71.872;2022-08-20T08:58:40;5.97;;;1.67;;
46054;SDS011;31788;6.954;-71.872;2022-08-20T09:01:09;4.10;;;1.63;;
46054;SDS011;31788;6.954;-71.872;2022-08-20T09:03:39;4.37;;;1.60;;
46054;SDS011;31788;6.954;-71.872;2022-08-20T09:06:14;4.35;;;1.63;;
46054;SDS011;31788;6.954;-71.872;2022-08-20T09:11:47;6.10;;;1.60;;
46054;SDS011;31788;6.954;-71.872;2022-08-20T09:14:17;4.95;;;1.88;;
46054;SDS011;31788;6.954;-71.872;2022-08-20T09:16:45;6.13;;;1.88;;
46054;SDS011;31788;6.954;-71.872;2022-08-20T09:19:11;3.97;;;1.40;;
46054;SDS011;31788;6.954;-71.872;2022-08-20T09:21:38;4.65;;;1.80;;
46054;SDS011;31788;6.954;-71.872;2022-08-20T09:24:04;3.60;;;1.50;;
46054;SDS011;31788;6.954;-71.872;2022-08-20T09:26:31;5.40;;;2.30;;
46054;SDS011;31788;6.954;-71.872;2022-08-20T09:28:57;4.70;;;2.92;;
46054;SDS011;31788;6.954;-71.872;2022-08-20T09:31:24;5.95;;;2.03;;
46054;SDS011;31788;6.954;-71.872;2022-08-20T09:33:51;4.53;;;2.00;;
46054;SDS011;31788;6.954;-71.872;2022-08-20T09:36:18;5.35;;;1.95;;
46054;SDS011;31788;6.954;-71.872;2022-08-20T09:38:45;5.10;;;1.80;;
46054;SDS011;31788;6.954;-71.872;2022-08-20T09:41:11;5.43;;;1.73;;
46054;SDS011;31788;6.954;-71.872;2022-08-20T09:43:38;5.95;;;1.63;;
46054;SDS011;31788;6.954;-71.872;2022-08-20T09:46:04;4.22;;;1.60;;
46054;SDS011;31788;6.954;-71.872;2022-08-20T09:48:31;4.43;;;1.83;;
46054;SDS011;31788;6.954;-71.872;2022-08-20T09:50:57;4.53;;;1.60;;
46054;SDS011;31788;6.954;-71.872;2022-08-20T09:53:24;5.47;;;2.00;;
46054;SDS011;31788;6.954;-71.872;2022-08-20T09:55:52;5.20;;;1.60;;
46054;SDS011;31788;6.954;-71.872;2022-08-20T09:58:24;3.00;;;1.30;;
46054;SDS011;31788;6.954;-71.872;2022-08-20T10:01:05;6.45;;;1.90;;
46054;SDS011;31788;6.954;-71.872;2022-08-20T10:03:34;5.22;;;1.70;;
46054;SDS011;31788;6.954;-71.872;2022-08-20T10:06:01;3.53;;;1.90;;
46054;SDS011;31788;6.954;-71.872;2022-08-20T10:08:28;4.47;;;1.70;;
46054;SDS011;31788;6.954;-71.872;2022-08-20T10:10:54;4.78;;;1.90;;
46054;SDS011;31788;6.954;-71.872;2022-08-20T10:13:21;3.40;;;1.58;;
46054;SDS011;31788;6.954;-71.872;2022-08-20T10:15:47;3.60;;;1.40;;
46054;SDS011;31788;6.954;-71.872;2022-08-20T10:18:14;4.57;;;1.67;;
46054;SDS011;31788;6.954;-71.872;2022-08-20T10:20:41;4.22;;;1.50;;
46054;SDS011;31788;6.954;-71.872;2022-08-20T10:23:07;3.30;;;1.45;;
46054;SDS011;31788;6.954;-71.872;2022-08-20T10:25:35;6.72;;;1.80;;
46054;SDS011;31788;6.954;-71.872;2022-08-20T10:28:02;5.28;;;1.73;;
46054;SDS011;31788;6.954;-71.872;2022-08-20T10:30:30;4.73;;;1.80;;
46054;SDS011;31788;6.954;-71.872;2022-08-20T10:32:57;6.18;;;1.60;;
46054;SDS011;31788;6.954;-71.872;2022-08-20T10:35:23;4.40;;;1.80;;
46054;SDS011;31788;6.954;-71.872;2022-08-20T10:37:50;6.50;;;1.98;;
46054;SDS011;31788;6.954;-71.872;2022-08-20T10:40:16;5.07;;;1.80;;
46054;SDS011;31788;6.954;-71.872;2022-08-20T10:42:43;6.82;;;1.63;;
46054;SDS011;31788;6.954;-71.872;2022-08-20T10:45:11;4.47;;;1.75;;
46054;SDS011;31788;6.954;-71.872;2022-08-20T10:47:39;4.32;;;1.80;;
46054;SDS011;31788;6.954;-71.872;2022-08-20T10:50:09;4.88;;;1.88;;
46054;SDS011;31788;6.954;-71.872;2022-08-20T10:52:37;4.30;;;1.87;;
46054;SDS011;31788;6.954;-71.872;2022-08-20T10:55:04;5.85;;;1.90;;
46054;SDS011;31788;6.954;-71.872;2022-08-20T10:57:31;3.13;;;1.48;;
46054;SDS011;31788;6.954;-71.872;2022-08-20T10:59:59;5.97;;;1.55;;
46054;SDS011;31788;6.954;-71.872;2022-08-20T11:02:26;5.28;;;2.20;;
46054;SDS011;31788;6.954;-71.872;2022-08-20T11:04:53;5.30;;;2.60;;
46054;SDS011;31788;6.954;-71.872;2022-08-20T11:07:31;4.22;;;2.00;;
46054;SDS011;31788;6.954;-71.872;2022-08-20T11:10:04;5.45;;;1.90;;
46054;SDS011;31788;6.954;-71.872;2022-08-20T11:12:32;4.33;;;1.80;;
46054;SDS011;31788;6.954;-71.872;2022-08-20T11:14:59;5.78;;;1.90;;
46054;SDS011;31788;6.954;-71.872;2022-08-20T11:17:26;5.45;;;1.90;;
46054;SDS011;31788;6.954;-71.872;2022-08-20T11:19:55;5.10;;;1.97;;
46054;SDS011;31788;6.954;-71.872;2022-08-20T11:22:23;9.27;;;2.53;;
46054;SDS011;31788;6.954;-71.872;2022-08-20T11:24:50;6.13;;;2.20;;
46054;SDS011;31788;6.954;-71.872;2022-08-20T11:27:20;5.22;;;2.00;;
46054;SDS011;31788;6.954;-71.872;2022-08-20T11:29:50;39.08;;;5.70;;
46054;SDS011;31788;6.954;-71.872;2022-08-20T11:32:17;32.28;;;4.97;;
46054;SDS011;31788;6.954;-71.872;2022-08-20T11:34:44;26.90;;;4.70;;
46054;SDS011;31788;6.954;-71.872;2022-08-20T11:37:11;29.25;;;6.05;;
46054;SDS011;31788;6.954;-71.872;2022-08-20T11:39:38;19.35;;;4.10;;
46054;SDS011;31788;6.954;-71.872;2022-08-20T11:42:05;20.13;;;4.22;;
46054;SDS011;31788;6.954;-71.872;2022-08-20T11:44:31;25.88;;;6.30;;
46054;SDS011;31788;6.954;-71.872;2022-08-20T11:47:01;8.15;;;2.92;;
46054;SDS011;31788;6.954;-71.872;2022-08-20T11:49:31;10.73;;;2.50;;
46054;SDS011;31788;6.954;-71.872;2022-08-20T11:52:01;7.28;;;2.80;;
46054;SDS011;31788;6.954;-71.872;2022-08-20T11:54:28;109.50;;;12.48;;
46054;SDS011;31788;6.954;-71.872;2022-08-20T11:56:57;15.88;;;3.45;;
46054;SDS011;31788;6.954;-71.872;2022-08-20T11:59:24;16.50;;;4.15;;
46054;SDS011;31788;6.954;-71.872;2022-08-20T12:01:52;12.63;;;3.73;;
46054;SDS011;31788;6.954;-71.872;2022-08-20T12:04:20;8.68;;;3.60;;
46054;SDS011;31788;6.954;-71.872;2022-08-20T12:06:46;10.32;;;3.85;;
46054;SDS011;31788;6.954;-71.872;2022-08-20T12:09:13;13.50;;;5.07;;
46054;SDS011;31788;6.954;-71.872;2022-08-20T12:11:40;12.23;;;5.63;;
46054;SDS011;31788;6.954;-71.872;2022-08-20T12:14:09;13.40;;;5.78;;
46054;SDS011;31788;6.954;-71.872;2022-08-20T12:16:36;9.43;;;4.50;;
46054;SDS011;31788;6.954;-71.872;2022-08-20T12:19:03;5.65;;;2.80;;
46054;SDS011;31788;6.954;-71.872;2022-08-20T12:21:29;6.28;;;2.30;;
46054;SDS011;31788;6.954;-71.872;2022-08-20T12:23:56;5.90;;;2.67;;
46054;SDS011;31788;6.954;-71.872;2022-08-20T12:26:22;7.88;;;2.60;;
46054;SDS011;31788;6.954;-71.872;2022-08-20T12:28:49;6.28;;;2.75;;
46054;SDS011;31788;6.954;-71.872;2022-08-20T12:31:15;9.10;;;2.55;;
46054;SDS011;31788;6.954;-71.872;2022-08-20T12:33:43;6.10;;;2.35;;
46054;SDS011;31788;6.954;-71.872;2022-08-20T12:36:10;6.40;;;2.50;;
46054;SDS011;31788;6.954;-71.872;2022-08-20T12:38:36;16.65;;;2.83;;
46054;SDS011;31788;6.954;-71.872;2022-08-20T12:41:03;4.53;;;2.10;;
46054;SDS011;31788;6.954;-71.872;2022-08-20T12:43:29;5.80;;;2.27;;
46054;SDS011;31788;6.954;-71.872;2022-08-20T12:45:56;6.28;;;2.20;;
46054;SDS011;31788;6.954;-71.872;2022-08-20T12:48:22;5.95;;;2.30;;
46054;SDS011;31788;6.954;-71.872;2022-08-20T12:50:49;6.22;;;2.30;;
46054;SDS011;31788;6.954;-71.872;2022-08-20T12:53:17;6.10;;;2.00;;
46054;SDS011;31788;6.954;-71.872;2022-08-20T12:55:44;6.27;;;2.17;;
46054;SDS011;31788;6.954;-71.872;2022-08-20T12:58:11;6.15;;;2.00;;
46054;SDS011;31788;6.954;-71.872;2022-08-20T13:00:39;6.97;;;2.13;;
46054;SDS011;31788;6.954;-71.872;2022-08-20T13:03:09;6.03;;;2.17;;
46054;SDS011;31788;6.954;-71.872;2022-08-20T13:05:37;5.90;;;2.20;;
46054;SDS011;31788;6.954;-71.872;2022-08-20T13:08:08;11.60;;;2.25;;
46054;SDS011;31788;6.954;-71.872;2022-08-20T13:10:36;10.57;;;2.30;;
46054;SDS011;31788;6.954;-71.872;2022-08-20T13:13:13;8.15;;;2.88;;
46054;SDS011;31788;6.954;-71.872;2022-08-20T13:15:41;12.15;;;3.28;;
46054;SDS011;31788;6.954;-71.872;2022-08-20T13:18:08;12.60;;;2.58;;
46054;SDS011;31788;6.954;-71.872;2022-08-20T13:20:34;10.75;;;2.90;;
46054;SDS011;31788;6.954;-71.872;2022-08-20T13:23:03;10.13;;;2.80;;
46054;SDS011;31788;6.954;-71.872;2022-08-20T13:25:30;6.82;;;2.17;;
46054;SDS011;31788;6.954;-71.872;2022-08-20T13:27:59;12.75;;;2.70;;
46054;SDS011;31788;6.954;-71.872;2022-08-20T13:30:28;7.85;;;2.25;;
46054;SDS011;31788;6.954;-71.872;2022-08-20T13:32:56;7.20;;;2.20;;
46054;SDS011;31788;6.954;-71.872;2022-08-20T13:35:26;8.45;;;2.60;;
46054;SDS011;31788;6.954;-71.872;2022-08-20T13:37:56;7.75;;;2.30;;
46054;SDS011;31788;6.954;-71.872;2022-08-20T13:40:26;7.90;;;2.50;;
46054;SDS011;31788;6.954;-71.872;2022-08-20T13:42:53;7.73;;;2.77;;
46054;SDS011;31788;6.954;-71.872;2022-08-20T13:45:19;6.13;;;2.40;;
46054;SDS011;31788;6.954;-71.872;2022-08-20T13:47:49;8.63;;;2.40;;
46054;SDS011;31788;6.954;-71.872;2022-08-20T13:50:20;5.90;;;2.05;;
46054;SDS011;31788;6.954;-71.872;2022-08-20T13:52:49;8.70;;;2.40;;
46054;SDS011;31788;6.954;-71.872;2022-08-20T13:55:17;6.05;;;2.20;;
46054;SDS011;31788;6.954;-71.872;2022-08-20T13:57:46;7.28;;;2.10;;
46054;SDS011;31788;6.954;-71.872;2022-08-20T14:00:14;5.93;;;2.30;;
46054;SDS011;31788;6.954;-71.872;2022-08-20T14:02:47;7.05;;;2.13;;
46054;SDS011;31788;6.954;-71.872;2022-08-20T14:05:20;7.75;;;2.58;;
46054;SDS011;31788;6.954;-71.872;2022-08-20T14:07:50;9.80;;;2.30;;
46054;SDS011;31788;6.954;-71.872;2022-08-20T14:10:28;8.57;;;2.50;;
46054;SDS011;31788;6.954;-71.872;2022-08-20T14:12:57;10.02;;;7.22;;
46054;SDS011;31788;6.954;-71.872;2022-08-20T14:15:30;9.70;;;4.70;;
46054;SDS011;31788;6.954;-71.872;2022-08-20T14:17:58;8.73;;;4.63;;
46054;SDS011;31788;6.954;-71.872;2022-08-20T14:20:26;9.57;;;3.70;;
46054;SDS011;31788;6.954;-71.872;2022-08-20T14:22:55;6.00;;;3.20;;
46054;SDS011;31788;6.954;-71.872;2022-08-20T14:25:28;9.82;;;3.95;;
46054;SDS011;31788;6.954;-71.872;2022-08-20T14:27:56;7.20;;;3.10;;
46054;SDS011;31788;6.954;-71.872;2022-08-20T14:30:26;8.93;;;2.65;;
46054;SDS011;31788;6.954;-71.872;2022-08-20T14:32:57;7.03;;;2.77;;
46054;SDS011;31788;6.954;-71.872;2022-08-20T14:35:24;7.43;;;2.70;;
46054;SDS011;31788;6.954;-71.872;2022-08-20T14:37:51;4.65;;;2.30;;
46054;SDS011;31788;6.954;-71.872;2022-08-20T14:40:21;8.77;;;2.57;;
46054;SDS011;31788;6.954;-71.872;2022-08-20T14:42:49;5.78;;;2.08;;
46054;SDS011;31788;6.954;-71.872;2022-08-20T14:45:16;5.65;;;2.15;;
46054;SDS011;31788;6.954;-71.872;2022-08-20T14:47:47;6.85;;;2.30;;
46054;SDS011;31788;6.954;-71.872;2022-08-20T14:50:18;7.10;;;2.10;;
46054;SDS011;31788;6.954;-71.872;2022-08-20T14:52:49;5.88;;;2.05;;
46054;SDS011;31788;6.954;-71.872;2022-08-20T14:55:18;15.23;;;3.00;;
46054;SDS011;31788;6.954;-71.872;2022-08-20T14:57:47;12.55;;;2.80;;